Weather at John Murtha Johnstown Cambria County Airport

Public forecast

Using degrees Fahrenheit for public forecast. Weather courtesy of forecast.io.

Current aviation weather report (METAR) for John Murtha Johnstown Cambria County Airport

Retrieved 2020/12/03 11:54 UTC (57 minutes ago):

KJST 031154Z AUTO 24012KT 10SM CLR M02/M08 A3019 RMK AO2 SLP250 T10221083 11017 21033 53004

Aviation forecast (TAF) for John Murtha Johnstown Cambria County Airport

Retrieved 2020/12/03 12:33 UTC (18 minutes ago):

TAF KJST 031131Z 0312/0412 24012KT P6SM FEW250 FM031400 23011G17KT P6SM SCT250 FM040200 23011KT P6SM BKN100